Time;durP1;ratioP1;P1;durP2;ratioP2;P2;SDS_P1;SDS_P2;PMS_P1;PMS_P2;Temp;Humidity;BMP_temperature;BMP_pressure;BME280_temperature;BME280_humidity;BME280_pressure;Samples;Min_cycle;Max_cycle;Signal;HPM_P1;HPM_P2
2022/08/12 00:44:08;;;;;;;2.45;1.65;;;18.60;69.80;;;;;;5113994;28;20058;-77
2022/08/12 00:46:48;;;;;;;2.00;1.90;;;18.60;69.80;;;;;;5113415;28;20027;-77
2022/08/12 00:49:15;;;;;;;3.47;2.20;;;18.70;69.80;;;;;;5118612;27;20384;-81
2022/08/12 00:54:26;;;;;;;3.38;2.30;;;18.80;69.90;;;;;;5119309;27;20041;-78
2022/08/12 00:56:53;;;;;;;6.03;2.80;;;18.80;69.90;;;;;;5121060;27;20386;-75
2022/08/12 00:59:19;;;;;;;3.35;2.30;;;18.90;69.90;;;;;;5117257;27;20027;-78
2022/08/12 01:01:47;;;;;;;3.17;2.20;;;18.90;70.00;;;;;;5122811;27;20034;-78
2022/08/12 01:12:36;;;;;;;2.45;2.08;;;18.70;70.60;;;;;;5113246;28;20350;-76
2022/08/12 01:15:03;;;;;;;2.30;2.00;;;18.70;70.90;;;;;;5113939;28;20051;-76
2022/08/12 01:17:29;;;;;;;3.10;2.00;;;18.60;71.00;;;;;;5113128;28;20054;-78
2022/08/12 01:19:59;;;;;;;5.00;2.10;;;18.60;71.40;;;;;;5114360;28;20468;-78
2022/08/12 01:22:34;;;;;;;4.13;2.43;;;18.50;71.70;;;;;;5107267;28;20031;-78
2022/08/12 01:25:10;;;;;;;3.42;1.90;;;18.50;72.00;;;;;;5102756;28;20028;-78
2022/08/12 01:27:38;;;;;;;4.18;2.10;;;18.50;72.20;;;;;;5123789;27;20131;-77
2022/08/12 01:30:08;;;;;;;3.40;1.65;;;18.40;72.50;;;;;;5134065;27;20101;-75
2022/08/12 01:32:37;;;;;;;2.88;2.05;;;18.30;72.60;;;;;;5132911;27;20520;-76
2022/08/12 01:35:07;;;;;;;3.50;2.07;;;18.30;73.00;;;;;;5133868;27;20033;-77
2022/08/12 01:37:47;;;;;;;4.85;2.08;;;18.20;73.20;;;;;;5132584;27;20211;-77
2022/08/12 01:40:15;;;;;;;2.00;1.90;;;18.20;73.30;;;;;;5130993;27;20035;-79
2022/08/12 01:42:47;;;;;;;2.17;2.00;;;18.10;73.60;;;;;;5130654;27;20023;-76
2022/08/12 01:45:16;;;;;;;2.03;1.80;;;18.10;73.90;;;;;;5133148;27;20034;-80
2022/08/12 01:47:54;;;;;;;4.57;2.13;;;18.00;74.20;;;;;;5132944;27;20402;-75
2022/08/12 01:50:30;;;;;;;3.58;1.95;;;18.00;74.60;;;;;;5132275;27;20019;-75
2022/08/12 01:53:09;;;;;;;3.42;2.33;;;17.90;74.80;;;;;;5133337;27;20024;-76
2022/08/12 01:55:41;;;;;;;2.85;2.17;;;17.80;75.00;;;;;;5132417;27;20031;-75
2022/08/12 01:58:16;;;;;;;2.40;2.00;;;17.80;75.50;;;;;;5131217;27;20023;-77
2022/08/12 02:00:57;;;;;;;3.17;2.25;;;17.70;75.70;;;;;;5133166;27;20503;-77
2022/08/12 02:12:53;;;;;;;3.15;1.98;;;17.60;76.70;;;;;;5101071;27;20047;-77
2022/08/12 02:15:46;;;;;;;3.28;2.15;;;17.50;77.00;;;;;;5132518;27;20037;-78
2022/08/12 02:18:24;;;;;;;6.55;1.90;;;17.50;77.10;;;;;;5131165;27;20027;-76
2022/08/12 02:20:53;;;;;;;4.13;2.17;;;17.50;77.30;;;;;;5132654;27;20023;-75
2022/08/12 02:23:25;;;;;;;2.47;1.80;;;17.40;77.50;;;;;;5132559;27;20061;-78
2022/08/12 02:25:54;;;;;;;2.50;2.30;;;17.40;77.70;;;;;;5133100;27;20464;-77
2022/08/12 02:28:20;;;;;;;4.00;2.20;;;17.40;78.10;;;;;;5131563;27;20051;-77
2022/08/12 02:30:46;;;;;;;2.42;2.03;;;17.40;78.40;;;;;;5132923;27;20104;-76
2022/08/12 02:33:12;;;;;;;2.35;2.05;;;17.30;78.50;;;;;;5129607;27;20039;-76
2022/08/12 02:35:39;;;;;;;3.33;2.30;;;17.20;78.60;;;;;;5132505;28;20160;-76
2022/08/12 02:38:10;;;;;;;2.67;2.10;;;17.30;79.10;;;;;;5114504;28;20090;-90
2022/08/12 02:40:38;;;;;;;3.28;2.40;;;17.30;79.20;;;;;;5134362;28;20463;-87
2022/08/12 02:43:13;;;;;;;3.03;2.20;;;17.30;79.50;;;;;;5136560;28;20084;-85
2022/08/12 02:46:08;;;;;;;3.70;2.40;;;17.30;79.60;;;;;;5136409;28;20161;-89
2022/08/12 02:48:56;;;;;;;5.38;1.80;;;17.30;79.70;;;;;;5134305;28;20769;-88
2022/08/12 02:51:27;;;;;;;5.20;1.95;;;17.30;79.90;;;;;;5130569;28;20080;-88
2022/08/12 02:53:56;;;;;;;4.10;2.30;;;17.30;80.10;;;;;;5122299;27;20483;-92
2022/08/12 02:56:22;;;;;;;3.28;2.50;;;17.30;80.40;;;;;;5137137;27;20110;-90
2022/08/12 02:58:49;;;;;;;3.35;2.42;;;17.30;80.60;;;;;;5137757;27;20062;-90
2022/08/12 03:01:16;;;;;;;3.13;2.10;;;17.30;80.60;;;;;;5137916;27;20019;-90
2022/08/12 03:03:43;;;;;;;4.22;2.90;;;17.30;81.00;;;;;;5118255;27;20031;-88
2022/08/12 03:06:20;;;;;;;2.95;2.42;;;17.20;81.30;;;;;;5135490;27;20027;-85
2022/08/12 03:08:48;;;;;;;3.92;2.42;;;17.20;81.70;;;;;;5134491;27;20023;-91
2022/08/12 03:11:38;;;;;;;2.92;2.22;;;17.10;82.00;;;;;;5118852;27;20035;-90
2022/08/12 03:14:04;;;;;;;;;;;17.00;82.80;;;;;;5138099;27;20027;-90
2022/08/12 03:16:31;;;;;;;3.72;2.40;;;16.90;83.00;;;;;;5136577;27;19909;-90
2022/08/12 03:18:57;;;;;;;5.63;2.45;;;16.90;83.40;;;;;;5119242;27;20106;-90
2022/08/12 03:21:24;;;;;;;2.50;2.22;;;16.80;83.70;;;;;;5136919;27;20080;-90
2022/08/12 03:23:53;;;;;;;3.20;1.95;;;16.80;83.80;;;;;;5135341;27;20468;-90
2022/08/12 03:26:23;;;;;;;3.47;2.05;;;16.80;84.20;;;;;;5138003;27;20079;-81
2022/08/12 03:28:50;;;;;;;2.50;2.03;;;16.70;84.40;;;;;;5134089;28;20053;-90
2022/08/12 03:31:33;;;;;;;2.42;2.20;;;16.70;84.80;;;;;;5123224;28;20035;-90
2022/08/12 03:34:13;;;;;;;3.78;2.40;;;16.70;85.30;;;;;;5134112;28;20032;-90
2022/08/12 03:36:40;;;;;;;2.53;2.33;;;16.60;85.70;;;;;;5139188;28;20030;-90
2022/08/12 03:39:33;;;;;;;5.57;2.20;;;16.60;86.30;;;;;;5140401;28;20023;-84
2022/08/12 03:42:21;;;;;;;3.25;2.50;;;16.50;86.70;;;;;;5090545;28;20028;-90
2022/08/12 04:01:43;;;;;;;3.33;2.30;;;16.40;88.20;;;;;;5116329;28;20255;-90
2022/08/12 04:04:09;;;;;;;4.78;2.38;;;16.40;88.30;;;;;;5116404;28;20468;-89
2022/08/12 04:06:44;;;;;;;5.38;2.30;;;16.40;88.60;;;;;;5095283;28;20515;-89
2022/08/12 04:09:11;;;;;;;3.42;2.45;;;16.40;88.60;;;;;;5115717;28;20051;-90
2022/08/12 04:14:27;;;;;;;2.58;2.30;;;16.40;88.90;;;;;;5105076;28;20085;-83
2022/08/12 04:16:53;;;;;;;2.67;2.42;;;16.40;89.10;;;;;;5116174;28;20034;-89
2022/08/12 04:19:19;;;;;;;4.32;2.35;;;16.40;89.40;;;;;;5116163;28;20106;-93
2022/08/12 04:21:45;;;;;;;4.15;2.35;;;16.40;90.00;;;;;;5115124;28;20148;-90
2022/08/12 04:24:11;;;;;;;2.78;2.30;;;16.40;89.80;;;;;;5115901;28;20035;-91
2022/08/12 04:26:40;;;;;;;2.97;2.30;;;16.40;89.80;;;;;;5116235;27;20528;-91
2022/08/12 04:29:06;;;;;;;4.47;2.72;;;16.30;89.80;;;;;;5136407;27;20038;-91
2022/08/12 04:31:32;;;;;;;2.92;2.38;;;16.40;90.00;;;;;;5114146;27;21196;-90
2022/08/12 04:33:59;;;;;;;3.72;2.65;;;16.40;90.00;;;;;;5135975;27;20403;-91
2022/08/12 04:36:25;;;;;;;3.60;2.30;;;16.40;90.20;;;;;;5135243;27;20027;-82
2022/08/12 04:38:51;;;;;;;2.42;2.17;;;16.40;90.20;;;;;;5136041;27;20049;-91
2022/08/12 04:41:18;;;;;;;2.75;2.22;;;16.40;90.20;;;;;;5135834;27;20034;-89
2022/08/12 04:43:44;;;;;;;3.63;2.30;;;16.40;90.20;;;;;;5135481;27;20261;-90
2022/08/12 04:46:10;;;;;;;2.22;2.05;;;16.40;90.20;;;;;;5133524;27;20473;-90
2022/08/12 04:48:36;;;;;;;3.20;1.92;;;16.40;90.30;;;;;;5134133;27;20050;-91
2022/08/12 04:51:02;;;;;;;4.90;2.40;;;16.50;90.30;;;;;;5136426;27;20023;-91
2022/08/12 04:53:29;;;;;;;2.97;2.38;;;16.50;90.30;;;;;;5134919;27;20059;-90
2022/08/12 04:55:55;;;;;;;3.28;2.35;;;16.50;90.40;;;;;;5135353;27;20031;-91
2022/08/12 04:58:21;;;;;;;3.33;2.50;;;16.50;90.30;;;;;;5135476;27;20022;-91
2022/08/12 05:00:47;;;;;;;2.85;2.25;;;16.50;90.30;;;;;;5134744;27;20023;-90
2022/08/12 05:03:13;;;;;;;2.72;2.20;;;16.60;90.30;;;;;;5129178;27;20023;-90
2022/08/12 05:05:39;;;;;;;3.25;2.40;;;16.60;90.30;;;;;;5135014;27;20023;-90
2022/08/12 05:08:14;;;;;;;3.17;2.30;;;16.60;90.20;;;;;;5135738;27;20035;-91
2022/08/12 05:10:42;;;;;;;2.88;2.40;;;16.70;90.20;;;;;;5135380;27;20024;-90
2022/08/12 05:13:11;;;;;;;5.03;2.72;;;16.70;90.10;;;;;;5144272;27;20045;-87
2022/08/12 05:15:41;;;;;;;4.78;2.65;;;16.80;90.20;;;;;;5138905;27;20023;-86
2022/08/12 05:18:06;;;;;;;3.60;2.50;;;16.90;90.30;;;;;;5133530;27;20076;-87
2022/08/12 05:20:33;;;;;;;3.80;2.60;;;16.90;90.30;;;;;;5128915;27;20028;-88
2022/08/12 05:23:11;;;;;;;4.75;3.10;;;16.90;90.20;;;;;;5135506;27;20114;-91
2022/08/12 05:25:37;;;;;;;3.05;2.53;;;17.10;90.10;;;;;;5134640;27;20053;-91
2022/08/12 05:28:07;;;;;;;3.67;2.67;;;17.10;90.00;;;;;;5134182;27;20047;-90
2022/08/12 05:30:34;;;;;;;7.22;2.83;;;17.20;88.90;;;;;;5134987;27;20020;-89
2022/08/12 05:33:04;;;;;;;3.80;2.85;;;17.30;88.20;;;;;;5141683;27;20035;-89
2022/08/12 05:35:38;;;;;;;4.13;2.75;;;17.40;88.70;;;;;;5130734;27;20096;-80
2022/08/12 05:40:49;;;;;;;6.82;2.65;;;17.50;87.60;;;;;;5126015;27;20030;-89
2022/08/12 05:43:15;;;;;;;6.22;2.65;;;17.80;86.10;;;;;;5134050;27;20023;-88
2022/08/12 05:45:40;;;;;;;4.20;2.67;;;18.00;85.10;;;;;;5134575;27;20417;-85
2022/08/12 05:48:06;;;;;;;5.35;2.97;;;18.00;85.20;;;;;;5133059;27;20035;-84
2022/08/12 05:50:34;;;;;;;9.48;3.50;;;18.10;83.90;;;;;;5138539;27;20422;-87
2022/08/12 05:53:00;;;;;;;6.65;2.60;;;18.20;83.90;;;;;;5134235;27;20019;-85
2022/08/12 05:55:26;;;;;;;5.85;2.70;;;18.20;83.30;;;;;;5132934;27;20031;-82
2022/08/12 05:57:54;;;;;;;3.88;2.72;;;18.20;83.40;;;;;;5136724;27;20452;-89
2022/08/12 06:00:21;;;;;;;5.78;2.88;;;18.30;83.70;;;;;;5135283;27;20046;-87
2022/08/12 06:02:47;;;;;;;6.22;2.95;;;18.30;82.60;;;;;;5134341;27;20630;-85
2022/08/12 06:05:12;;;;;;;6.57;3.00;;;18.40;82.90;;;;;;5134745;27;20039;-85
2022/08/12 06:07:45;;;;;;;7.18;2.47;;;18.50;82.80;;;;;;5133402;27;20024;-84
2022/08/12 06:10:11;;;;;;;6.65;3.05;;;18.60;82.90;;;;;;5134969;27;20365;-86
2022/08/12 06:12:36;;;;;;;4.30;2.78;;;18.70;82.10;;;;;;5143618;27;20076;-91
2022/08/12 06:15:03;;;;;;;4.03;2.42;;;18.80;81.70;;;;;;5141870;27;20079;-91
2022/08/12 06:17:29;;;;;;;4.93;2.53;;;18.90;81.60;;;;;;5134946;27;20030;-84
2022/08/12 06:19:58;;;;;;;6.65;2.63;;;18.90;81.10;;;;;;5135598;27;20034;-93
2022/08/12 06:22:25;;;;;;;5.40;2.58;;;19.00;80.90;;;;;;5135032;27;20425;-93
2022/08/12 06:24:54;;;;;;;5.18;2.55;;;19.20;80.30;;;;;;5133005;27;20031;-89
2022/08/12 06:27:20;;;;;;;3.28;2.25;;;19.30;79.60;;;;;;5131691;27;20054;-89
2022/08/12 06:29:46;;;;;;;7.30;2.58;;;19.40;79.80;;;;;;5095876;28;20028;-90
2022/08/12 06:32:14;;;;;;;3.10;2.70;;;19.50;78.80;;;;;;5106814;28;20028;-89
2022/08/12 06:34:39;;;;;;;5.90;2.75;;;19.70;78.80;;;;;;5101641;28;20080;-91
2022/08/12 06:37:06;;;;;;;3.17;2.42;;;19.80;78.30;;;;;;5112843;28;20032;-89
2022/08/12 06:39:31;;;;;;;3.92;2.78;;;19.90;76.70;;;;;;5109889;28;20028;-81
2022/08/12 06:44:41;;;;;;;9.65;2.90;;;20.10;77.20;;;;;;5105786;28;20076;-88
2022/08/12 06:47:07;;;;;;;6.20;2.88;;;20.10;76.70;;;;;;5113347;28;20035;-88
2022/08/12 06:49:35;;;;;;;7.80;2.92;;;20.30;76.00;;;;;;5109551;28;20099;-86
2022/08/12 06:52:03;;;;;;;7.65;2.95;;;20.30;76.90;;;;;;5112828;28;20036;-91
2022/08/12 06:54:29;;;;;;;4.03;2.65;;;20.40;76.40;;;;;;5110682;28;20032;-82
2022/08/12 06:56:56;;;;;;;6.82;2.45;;;20.50;75.70;;;;;;5108937;28;20460;-92
2022/08/12 06:59:21;;;;;;;9.98;3.35;;;20.60;75.20;;;;;;5113036;28;20019;-91
2022/08/12 07:01:47;;;;;;;4.60;2.60;;;20.80;74.20;;;;;;5109304;28;20027;-90
2022/08/12 07:04:14;;;;;;;8.82;2.67;;;21.00;73.50;;;;;;5105856;28;20069;-89
2022/08/12 07:06:40;;;;;;;3.67;2.45;;;21.10;73.70;;;;;;5113822;28;20031;-88
2022/08/12 07:09:06;;;;;;;24.98;3.90;;;21.00;74.00;;;;;;5117022;28;20034;-87
2022/08/12 07:11:33;;;;;;;5.93;2.42;;;21.10;73.50;;;;;;5113415;28;20028;-80
2022/08/12 07:14:03;;;;;;;5.95;2.38;;;21.30;72.80;;;;;;5113606;28;20032;-87
2022/08/12 07:16:51;;;;;;;;;;;21.30;72.90;;;;;;5104008;28;20085;-89
2022/08/12 07:19:17;;;;;;;5.45;2.33;;;21.40;72.60;;;;;;5112854;28;19904;-86
2022/08/12 07:21:42;;;;;;;3.65;2.33;;;21.60;72.10;;;;;;5116193;28;20032;-86
2022/08/12 07:24:09;;;;;;;6.03;2.60;;;21.70;71.30;;;;;;5098270;28;20036;-86
2022/08/12 07:26:40;;;;;;;4.05;2.08;;;21.70;71.50;;;;;;5112917;27;20032;-85
2022/08/12 07:29:08;;;;;;;3.45;2.33;;;21.80;72.30;;;;;;5130573;28;20054;-87
2022/08/12 07:31:34;;;;;;;5.53;2.13;;;22.00;70.50;;;;;;5126715;28;20031;-89
2022/08/12 07:34:00;;;;;;;8.35;2.58;;;22.10;70.60;;;;;;5130692;28;20035;-89
2022/08/12 07:36:26;;;;;;;4.10;2.05;;;22.20;69.80;;;;;;5131166;28;20031;-87
2022/08/12 07:38:52;;;;;;;10.40;2.47;;;22.40;68.40;;;;;;5134550;28;20046;-91
2022/08/12 07:41:21;;;;;;;4.75;2.38;;;22.50;68.70;;;;;;5134432;27;20027;-88
2022/08/12 07:43:52;;;;;;;9.77;2.45;;;22.70;69.40;;;;;;5134147;27;20423;-76
2022/08/12 07:46:21;;;;;;;6.10;2.70;;;22.80;67.80;;;;;;5132955;27;20046;-75
2022/08/12 07:48:53;;;;;;;4.10;2.15;;;23.00;69.10;;;;;;5134886;27;20032;-76
2022/08/12 07:51:21;;;;;;;5.88;2.20;;;23.10;67.60;;;;;;5134432;27;20094;-76
2022/08/12 07:53:47;;;;;;;7.65;2.25;;;23.20;66.70;;;;;;5133598;27;20111;-76
2022/08/12 07:56:14;;;;;;;3.30;2.08;;;23.30;66.80;;;;;;5134041;27;20031;-77
2022/08/12 07:58:40;;;;;;;7.40;2.35;;;23.40;66.40;;;;;;5133410;27;20019;-76
2022/08/12 08:01:14;;;;;;;8.70;2.30;;;23.60;65.90;;;;;;5126246;27;20050;-76
2022/08/12 08:04:54;;;;;;;9.85;2.33;;;23.70;65.60;;;;;;5119691;27;20031;-76
2022/08/12 08:06:31;;;;;;;3.28;2.30;;;23.80;65.70;;;;;;5134295;27;20095;-77
2022/08/12 08:08:58;;;;;;;4.77;2.77;;;24.00;65.20;;;;;;5129779;27;20068;-77
2022/08/12 08:14:09;;;;;;;5.70;2.25;;;24.20;64.60;;;;;;5136907;27;20033;-77
2022/08/12 08:16:36;;;;;;;4.45;2.10;;;24.20;64.90;;;;;;5134034;27;20051;-76
2022/08/12 08:19:05;;;;;;;10.40;2.75;;;24.30;64.80;;;;;;5131983;27;20055;-77
2022/08/12 08:21:34;;;;;;;6.00;2.75;;;24.40;63.80;;;;;;5125121;27;20075;-77
2022/08/12 08:24:15;;;;;;;5.63;2.20;;;24.40;63.80;;;;;;5131823;27;20475;-76
2022/08/12 08:26:46;;;;;;;3.55;2.10;;;24.60;63.70;;;;;;5134916;27;20022;-76
2022/08/12 08:29:12;;;;;;;2.85;2.00;;;24.60;63.00;;;;;;5134852;27;20031;-77
2022/08/12 08:31:42;;;;;;;4.15;2.30;;;24.70;62.90;;;;;;5126088;27;20053;-77
2022/08/12 08:34:16;;;;;;;4.13;2.25;;;24.80;62.80;;;;;;5129919;27;20042;-77
2022/08/12 08:36:42;;;;;;;8.77;2.63;;;24.90;62.40;;;;;;5131626;27;20027;-77
2022/08/12 08:39:09;;;;;;;3.58;1.90;;;25.00;61.20;;;;;;5123662;27;20387;-77
2022/08/12 08:44:20;;;;;;;3.08;1.83;;;25.10;62.00;;;;;;5123173;27;20080;-77
2022/08/12 08:46:48;;;;;;;5.20;1.92;;;25.20;61.50;;;;;;5133246;27;20122;-77
2022/08/12 08:49:14;;;;;;;3.47;1.88;;;25.30;62.10;;;;;;5134508;27;20098;-77
2022/08/12 08:51:41;;;;;;;4.15;2.00;;;25.50;60.10;;;;;;5132284;27;20054;-77
2022/08/12 08:54:08;;;;;;;9.73;2.00;;;25.60;60.00;;;;;;5133955;27;20027;-77
2022/08/12 08:56:43;;;;;;;5.57;2.10;;;25.70;59.80;;;;;;5132060;27;20343;-77
2022/08/12 08:59:10;;;;;;;4.40;1.70;;;25.70;60.20;;;;;;5127542;27;20525;-77
2022/08/12 09:01:39;;;;;;;4.00;1.90;;;25.70;59.40;;;;;;5133577;27;20379;-76
2022/08/12 09:04:07;;;;;;;3.67;1.98;;;25.70;58.80;;;;;;5114721;27;20070;-77
2022/08/12 09:06:32;;;;;;;2.20;2.00;;;25.80;58.10;;;;;;5133073;27;20031;-77
2022/08/12 09:08:58;;;;;;;1.50;1.38;;;25.80;57.70;;;;;;5132932;27;20033;-77
2022/08/12 09:14:09;;;;;;;3.65;1.40;;;25.90;56.70;;;;;;5128734;27;20034;-77
2022/08/12 09:16:38;;;;;;;7.95;2.00;;;25.90;56.80;;;;;;5128679;27;20039;-77
2022/08/12 09:19:04;;;;;;;7.85;2.28;;;26.00;56.50;;;;;;5134033;27;20045;-77
2022/08/12 09:21:31;;;;;;;9.27;1.70;;;26.10;57.10;;;;;;5135424;27;20159;-77
2022/08/12 09:23:59;;;;;;;7.57;1.95;;;26.30;56.60;;;;;;5132383;27;20451;-77
2022/08/12 09:26:27;;;;;;;4.22;1.90;;;26.40;55.90;;;;;;5134487;27;20031;-78
2022/08/12 09:28:53;;;;;;;4.30;1.67;;;26.50;55.10;;;;;;5121995;27;20062;-77
2022/08/12 09:31:20;;;;;;;4.70;1.70;;;26.50;54.10;;;;;;5121008;27;20163;-77
2022/08/12 09:33:46;;;;;;;2.53;1.98;;;26.40;54.10;;;;;;5114977;27;20046;-78
2022/08/12 09:36:13;;;;;;;1.75;1.52;;;26.30;54.80;;;;;;5124030;27;20075;-78
2022/08/12 09:38:39;;;;;;;4.47;1.75;;;26.40;55.30;;;;;;5116338;27;20349;-76
2022/08/12 09:41:05;;;;;;;2.83;1.52;;;26.50;54.30;;;;;;5112884;28;20145;-78
2022/08/12 09:46:16;;;;;;;12.38;1.70;;;26.60;53.80;;;;;;5112761;27;20156;-78
2022/08/12 09:48:45;;;;;;;5.15;1.80;;;26.70;53.80;;;;;;5119584;27;20030;-78
2022/08/12 09:51:12;;;;;;;5.15;1.75;;;26.80;53.60;;;;;;5115859;27;20023;-78
2022/08/12 09:53:39;;;;;;;2.60;1.63;;;27.00;53.90;;;;;;5112016;27;20111;-77
2022/08/12 09:56:06;;;;;;;2.25;1.73;;;27.10;54.00;;;;;;5117406;27;20026;-78
2022/08/12 09:58:33;;;;;;;7.50;1.75;;;27.10;53.80;;;;;;5122619;27;20023;-77
2022/08/12 10:01:01;;;;;;;1.88;1.60;;;27.20;53.70;;;;;;5113572;27;20519;-77
2022/08/12 10:03:30;;;;;;;3.17;1.75;;;27.30;54.20;;;;;;5112210;28;20040;-77
2022/08/12 10:05:56;;;;;;;3.55;2.05;;;27.40;54.10;;;;;;5113868;27;20059;-77
2022/08/12 10:08:26;;;;;;;5.32;1.80;;;27.40;53.80;;;;;;5115048;27;20042;-77
2022/08/12 10:13:40;;;;;;;8.85;2.10;;;27.50;53.30;;;;;;5111437;28;20127;-76
2022/08/12 10:16:33;;;;;;;9.38;1.77;;;27.60;52.90;;;;;;5108048;27;20034;-77
2022/08/12 10:19:04;;;;;;;3.17;1.83;;;27.60;52.30;;;;;;5111301;27;20100;-77
2022/08/12 10:21:35;;;;;;;2.95;2.00;;;27.70;53.20;;;;;;5113437;27;20031;-77
2022/08/12 10:24:04;;;;;;;7.88;2.20;;;27.60;52.90;;;;;;5125696;27;20051;-77
2022/08/12 10:32:05;;;;;;;3.28;2.15;;;27.60;53.20;;;;;;5131104;27;20038;-77
2022/08/12 10:34:31;;;;;;;2.55;1.75;;;27.80;53.60;;;;;;5131891;27;20031;-77
2022/08/12 10:36:59;;;;;;;3.25;1.70;;;27.80;53.60;;;;;;5130968;28;20034;-77
2022/08/12 10:39:34;;;;;;;4.22;2.00;;;27.90;53.30;;;;;;5131102;28;20023;-77
2022/08/12 10:44:47;;;;;;;2.10;1.77;;;28.10;52.60;;;;;;5128422;28;20072;-77
2022/08/12 10:47:15;;;;;;;2.50;2.00;;;27.90;52.80;;;;;;5131955;28;20019;-77
2022/08/12 10:49:43;;;;;;;5.90;1.92;;;27.70;53.10;;;;;;5131003;28;20035;-77
2022/08/12 10:52:09;;;;;;;1.85;1.75;;;27.60;52.70;;;;;;5131652;28;20054;-77
2022/08/12 10:54:35;;;;;;;4.13;1.70;;;27.40;52.40;;;;;;5131475;28;20427;-76
2022/08/12 10:57:00;;;;;;;1.60;1.50;;;27.50;53.20;;;;;;5130833;28;20106;-77
2022/08/12 10:59:28;;;;;;;2.28;1.58;;;27.60;52.90;;;;;;5131470;28;20521;-78
2022/08/12 11:01:55;;;;;;;2.40;1.92;;;27.90;51.70;;;;;;5130760;28;20434;-79
2022/08/12 11:04:21;;;;;;;5.97;2.30;;;28.20;51.70;;;;;;5114591;28;20318;-77
2022/08/12 11:06:47;;;;;;;5.43;1.83;;;28.30;51.50;;;;;;5131521;28;20020;-78
2022/08/12 11:09:16;;;;;;;2.17;1.60;;;28.20;51.40;;;;;;5131896;28;20023;-78
2022/08/12 11:11:43;;;;;;;8.70;1.90;;;28.10;51.30;;;;;;5131011;28;20035;-78
2022/08/12 11:14:09;;;;;;;2.13;1.75;;;28.20;52.10;;;;;;5131776;28;20437;-77
2022/08/12 11:16:34;;;;;;;3.67;1.63;;;28.40;52.40;;;;;;5133579;27;20023;-78
2022/08/12 11:19:00;;;;;;;5.97;1.73;;;28.60;51.60;;;;;;5135152;27;20031;-79
2022/08/12 11:21:25;;;;;;;2.30;1.40;;;28.90;50.40;;;;;;5136077;27;20456;-78
2022/08/12 11:23:51;;;;;;;7.43;1.67;;;29.10;50.20;;;;;;5134914;27;20023;-78
2022/08/12 11:26:17;;;;;;;3.88;1.70;;;29.20;49.50;;;;;;5135510;27;20534;-78
2022/08/12 11:28:42;;;;;;;7.43;1.60;;;29.00;50.00;;;;;;5124971;27;20047;-78
2022/08/12 11:31:08;;;;;;;9.40;1.40;;;29.00;49.10;;;;;;5115179;28;20020;-78
2022/08/12 11:33:34;;;;;;;6.68;2.03;;;28.90;49.80;;;;;;5121540;27;20088;-78
2022/08/12 11:36:07;;;;;;;2.70;1.83;;;28.90;49.50;;;;;;5119279;27;20028;-76
2022/08/12 11:38:33;;;;;;;3.33;1.75;;;29.00;49.60;;;;;;5114352;28;20027;-78
2022/08/12 11:41:01;;;;;;;20.67;1.90;;;28.70;49.00;;;;;;5114541;27;20192;-78
2022/08/12 11:43:26;;;;;;;7.80;1.67;;;28.60;49.50;;;;;;5127175;27;20031;-78
2022/08/12 11:45:52;;;;;;;3.90;1.48;;;28.70;49.40;;;;;;5128670;27;20372;-78
2022/08/12 11:48:17;;;;;;;3.20;1.45;;;28.70;49.60;;;;;;5117428;27;20076;-78
2022/08/12 11:50:43;;;;;;;4.88;1.77;;;28.40;49.60;;;;;;5117765;27;20436;-78
2022/08/12 11:53:09;;;;;;;2.80;1.20;;;28.20;49.50;;;;;;5130032;27;20146;-78
2022/08/12 11:55:34;;;;;;;4.13;1.33;;;28.20;49.60;;;;;;5115372;27;20039;-78
2022/08/12 11:58:00;;;;;;;4.45;1.48;;;28.30;49.30;;;;;;5128860;27;20146;-78
2022/08/12 12:00:26;;;;;;;2.08;1.55;;;28.60;49.50;;;;;;5123274;27;20073;-78
2022/08/12 12:02:51;;;;;;;3.67;1.90;;;28.90;49.20;;;;;;5124262;27;20031;-78
2022/08/12 12:05:18;;;;;;;2.22;1.30;;;28.90;48.50;;;;;;5114918;27;20046;-78
2022/08/12 12:07:45;;;;;;;3.97;1.80;;;29.00;49.00;;;;;;5112784;27;20031;-77
2022/08/12 12:10:13;;;;;;;4.40;1.50;;;28.80;48.50;;;;;;5124447;27;20035;-78
2022/08/12 12:12:40;;;;;;;3.08;1.67;;;28.40;48.20;;;;;;5124023;27;20027;-74
2022/08/12 12:15:07;;;;;;;2.35;1.40;;;28.30;48.30;;;;;;5116761;27;20065;-78
2022/08/12 12:17:37;;;;;;;3.40;1.60;;;28.40;49.10;;;;;;5125327;27;20019;-78
2022/08/12 12:20:08;;;;;;;2.10;1.73;;;28.70;48.80;;;;;;5115169;27;20020;-80
2022/08/12 12:22:43;;;;;;;1.73;1.58;;;29.00;48.50;;;;;;5103536;28;20156;-76
2022/08/12 12:25:09;;;;;;;2.15;1.50;;;29.30;48.40;;;;;;5114256;28;20027;-76
2022/08/12 12:27:51;;;;;;;4.35;1.40;;;29.60;47.60;;;;;;5121009;27;20051;-77
2022/08/12 12:30:18;;;;;;;3.88;1.50;;;29.70;47.10;;;;;;5123546;27;20019;-77
2022/08/12 12:32:44;;;;;;;3.78;1.83;;;29.90;46.10;;;;;;5133755;27;20159;-77
2022/08/12 12:35:10;;;;;;;5.00;1.85;;;30.00;47.30;;;;;;5134462;27;20157;-77
2022/08/12 12:37:56;;;;;;;4.00;1.40;;;30.10;46.90;;;;;;5134273;27;20480;-76
2022/08/12 12:40:23;;;;;;;3.65;1.10;;;30.50;46.10;;;;;;5125505;27;20027;-75
2022/08/12 12:42:49;;;;;;;4.82;1.52;;;30.80;45.90;;;;;;5133562;27;20072;-75
2022/08/12 12:45:16;;;;;;;2.10;1.42;;;31.10;45.50;;;;;;5134414;27;20031;-74
2022/08/12 12:48:01;;;;;;;2.78;1.52;;;31.20;45.20;;;;;;5138474;27;20544;-74
2022/08/12 12:50:41;;;;;;;4.88;1.70;;;30.30;46.30;;;;;;5128406;27;20019;-74
2022/08/12 12:53:08;;;;;;;2.97;1.67;;;30.00;46.90;;;;;;5134244;27;20027;-75
2022/08/12 12:55:36;;;;;;;3.72;1.77;;;29.70;47.40;;;;;;5134394;27;20038;-75
2022/08/12 12:58:04;;;;;;;6.47;1.65;;;29.50;48.20;;;;;;5133494;27;20019;-76
2022/08/12 13:00:31;;;;;;;1.77;1.50;;;29.60;47.60;;;;;;5133718;27;20027;-75
2022/08/12 13:02:58;;;;;;;1.70;1.60;;;30.00;47.30;;;;;;5113344;27;20443;-75
2022/08/12 13:05:35;;;;;;;1.73;1.60;;;30.40;46.60;;;;;;5129174;27;20023;-76
2022/08/12 13:08:03;;;;;;;2.92;1.50;;;30.60;47.00;;;;;;5129011;27;20104;-77
2022/08/12 13:10:30;;;;;;;2.13;1.92;;;30.80;47.00;;;;;;5133850;27;20068;-76
2022/08/12 13:12:56;;;;;;;5.40;1.70;;;30.90;46.40;;;;;;5133271;27;20066;-76
2022/08/12 13:15:22;;;;;;;6.97;1.60;;;31.00;46.30;;;;;;5134157;27;20027;-75
2022/08/12 13:17:49;;;;;;;3.53;1.60;;;31.10;46.20;;;;;;5132898;27;20030;-76
2022/08/12 13:20:17;;;;;;;1.88;1.48;;;31.30;45.90;;;;;;5133361;27;20053;-74
2022/08/12 13:22:44;;;;;;;2.45;1.50;;;31.40;45.90;;;;;;5133694;27;20054;-72
2022/08/12 13:25:10;;;;;;;2.00;1.45;;;31.60;45.00;;;;;;5133859;27;20031;-73
2022/08/12 13:27:40;;;;;;;2.50;1.30;;;31.80;45.50;;;;;;5132728;27;20100;-74
2022/08/12 13:30:11;;;;;;;;;;;31.80;44.90;;;;;;5123275;27;20034;-74
2022/08/12 13:32:44;;;;;;;3.28;1.38;;;31.80;45.30;;;;;;5128065;27;20248;-76
2022/08/12 13:35:10;;;;;;;5.75;1.73;;;31.60;45.30;;;;;;5133002;27;20054;-74
2022/08/12 13:37:39;;;;;;;2.92;1.58;;;31.30;45.10;;;;;;5133632;27;20432;-74
2022/08/12 13:40:06;;;;;;;3.95;1.75;;;31.00;45.50;;;;;;5130955;27;20027;-75
2022/08/12 13:42:31;;;;;;;4.60;1.58;;;30.70;46.50;;;;;;5132216;27;20023;-75
2022/08/12 13:44:57;;;;;;;2.42;1.10;;;30.50;46.20;;;;;;5128131;27;20030;-75
2022/08/12 13:47:23;;;;;;;3.33;1.70;;;30.50;46.30;;;;;;5131794;27;20035;-74
2022/08/12 13:49:50;;;;;;;3.92;1.70;;;30.50;46.20;;;;;;5134560;27;20022;-76
2022/08/12 13:52:17;;;;;;;8.60;1.65;;;30.40;46.70;;;;;;5133579;27;20043;-76
2022/08/12 13:54:45;;;;;;;2.45;1.63;;;30.20;46.90;;;;;;5125538;27;20072;-76
2022/08/12 13:57:13;;;;;;;4.07;1.60;;;30.10;46.60;;;;;;5132050;27;20110;-76
2022/08/12 13:59:40;;;;;;;6.25;1.80;;;30.00;47.00;;;;;;5139411;27;20027;-75
2022/08/12 14:02:09;;;;;;;4.07;1.52;;;29.90;46.60;;;;;;5134285;27;20027;-75
2022/08/12 14:04:35;;;;;;;1.92;1.27;;;29.70;46.70;;;;;;5134639;27;20030;-75
2022/08/12 14:07:04;;;;;;;2.90;1.52;;;29.60;46.70;;;;;;5136695;27;20060;-75
2022/08/12 14:10:34;;;;;;;3.53;1.27;;;29.50;46.60;;;;;;5140008;27;20022;-75
2022/08/12 14:12:17;;;;;;;3.03;1.50;;;29.60;47.00;;;;;;5137686;27;20433;-75
2022/08/12 14:14:49;;;;;;;1.70;1.35;;;29.60;47.10;;;;;;5142954;27;20015;-76
2022/08/12 14:17:15;;;;;;;2.28;1.50;;;29.80;47.40;;;;;;5140307;27;20046;-74
2022/08/12 14:20:12;;;;;;;2.15;1.48;;;30.10;46.60;;;;;;5137016;27;20682;-74
2022/08/12 14:22:27;;;;;;;5.68;1.98;;;30.50;46.60;;;;;;5139057;27;20057;-76
2022/08/12 14:24:53;;;;;;;2.65;1.42;;;30.80;45.50;;;;;;5144328;27;20027;-74
2022/08/12 14:27:19;;;;;;;3.58;1.70;;;31.00;45.50;;;;;;5142379;27;20051;-78
2022/08/12 14:29:45;;;;;;;2.58;1.30;;;31.30;45.60;;;;;;5143689;27;20487;-83
2022/08/12 14:32:11;;;;;;;1.98;1.35;;;31.50;44.90;;;;;;5138434;27;20027;-82
2022/08/12 14:34:36;;;;;;;3.63;1.60;;;31.60;45.10;;;;;;5136456;27;20487;-80
2022/08/12 14:37:05;;;;;;;3.40;1.25;;;31.80;44.60;;;;;;5136879;27;20080;-80
2022/08/12 14:39:30;;;;;;;2.28;1.10;;;31.90;44.50;;;;;;5155683;27;20468;-81
2022/08/12 14:41:56;;;;;;;3.75;1.50;;;32.10;44.00;;;;;;5144814;27;20019;-80
2022/08/12 14:44:24;;;;;;;4.55;1.50;;;32.30;43.70;;;;;;5142645;27;20082;-78
2022/08/12 14:46:54;;;;;;;3.00;1.30;;;32.50;43.70;;;;;;5144238;27;20386;-76